Date,TemperatureHighF,TemperatureAvgF,TemperatureLowF,DewpointHighF,DewpointAvgF,DewpointLowF,HumidityHigh,HumidityAvg,HumidityLow,PressureMaxIn,PressureMinIn,WindSpeedMaxMPH,WindSpeedAvgMPH,GustSpeedMaxMPH,PrecipitationSumIn
2013-9-1,79,72,68,74,70,66,94,90,81,29.83,29.73,13,3,13,0.05
2013-9-2,78,73,71,74,70,68,94,90,79,29.82,29.65,15,2,16,0.01
2013-9-3,79,72,63,70,67,56,95,83,66,29.76,29.63,14,3,18,0.00
2013-9-4,79,67,57,60,56,53,92,69,44,29.87,29.75,19,3,20,0.00
2013-9-5,69,62,51,60,51,40,91,69,38,30.09,29.80,14,2,14,0.00
2013-9-6,69,56,42,45,42,37,92,62,37,30.19,30.03,14,2,14,0.00
2013-9-7,78,63,49,57,49,44,83,64,39,30.04,29.79,15,3,16,0.00
2013-9-8,71,62,51,60,51,39,93,69,39,30.05,29.68,22,4,22,0.00
2013-9-9,68,56,41,49,43,38,91,65,41,30.19,30.04,15,3,17,0.00
2013-9-10,74,65,55,69,61,49,93,85,77,30.10,29.96,17,3,21,0.00
2013-9-11,94,80,69,76,71,65,95,76,49,30.00,29.87,18,4,23,0.00
2013-9-12,86,76,66,74,69,64,95,78,59,29.91,29.61,24,4,27,0.00
2013-9-13,77,66,58,67,62,53,96,87,65,29.70,29.50,13,2,14,0.00
2013-9-14,65,60,55,54,52,50,86,75,64,29.93,29.70,13,4,15,0.00
2013-9-15,60,60,60,51,51,51,71,71,71,29.93,29.93,2,2,4,0.00
2013-9-16,60,60,60,51,51,51,71,71,71,29.93,29.93,2,2,4,0.00
2013-9-17,60,60,60,51,51,51,71,71,71,29.93,29.93,2,2,4,0.00
2013-9-18,60,60,60,51,51,51,71,71,71,29.93,29.93,2,2,4,0.00
2013-9-19,78,64,48,56,52,44,91,66,39,30.08,29.93,8,2,9,0.00
2013-9-20,78,62,48,58,53,47,95,75,43,30.02,29.93,11,2,12,0.00
2013-9-21,74,64,51,64,58,49,95,83,60,29.97,29.67,23,5,27,0.00
2013-9-22,70,63,51,66,56,43,94,78,51,29.78,29.54,24,6,25,0.00
2013-9-23,60,52,43,44,41,38,85,68,54,29.95,29.77,18,5,22,0.00
2013-9-24,65,51,40,45,41,37,91,71,44,29.94,29.75,13,3,22,0.00
2013-9-25,65,53,43,50,46,41,91,77,57,29.93,29.82,13,2,13,0.00
2013-9-26,66,57,52,50,48,45,87,73,53,30.07,29.92,11,2,11,0.00
2013-9-27,64,57,49,53,50,47,94,79,62,30.20,30.06,12,2,14,0.00
2013-9-28,70,56,44,56,50,43,96,80,53,30.28,30.19,21,2,21,0.00
2013-9-29,66,52,45,52,47,43,96,84,52,30.21,30.06,12,2,15,0.00
2013-9-30,66,54,46,52,48,44,96,83,53,30.08,29.91,11,1,12,0.00